Time;durP1;ratioP1;P1;durP2;ratioP2;P2;SDS_P1;SDS_P2;PMS_P1;PMS_P2;Temp;Humidity;BMP_temperature;BMP_pressure;BME280_temperature;BME280_humidity;BME280_pressure;Samples;Min_cycle;Max_cycle;Signal;HPM_P1;HPM_P2
2022/06/24 00:00:16;;;;;;;19.65;17.48;;;23.50;99.90;;;;;;5093204;28;20024;-80
2022/06/24 00:02:47;;;;;;;22.40;20.23;;;23.40;99.90;;;;;;5092964;28;20048;-80
2022/06/24 00:05:13;;;;;;;24.60;18.30;;;23.40;99.90;;;;;;5094104;28;20035;-80
2022/06/24 00:07:45;;;;;;;21.48;18.45;;;23.40;99.90;;;;;;5094368;28;20033;-80
2022/06/24 00:10:13;;;;;;;25.02;20.08;;;23.40;99.90;;;;;;5093308;28;20024;-80
2022/06/24 00:12:38;;;;;;;24.02;19.58;;;23.30;99.90;;;;;;5093380;28;20030;-80
2022/06/24 00:15:04;;;;;;;28.52;21.73;;;23.30;99.90;;;;;;5094375;28;20028;-79
2022/06/24 00:17:32;;;;;;;24.98;17.80;;;23.30;99.90;;;;;;5097341;28;20498;-80
2022/06/24 00:19:59;;;;;;;23.08;16.85;;;23.20;99.90;;;;;;5097022;28;20111;-79
2022/06/24 00:22:27;;;;;;;19.58;17.88;;;23.20;99.90;;;;;;5095695;28;20035;-80
2022/06/24 00:25:12;;;;;;;20.40;16.02;;;23.20;99.90;;;;;;5095868;28;20028;-80
2022/06/24 00:27:39;;;;;;;20.10;17.73;;;23.10;99.90;;;;;;5092133;28;20079;-79
2022/06/24 00:30:16;;;;;;;22.92;20.60;;;23.10;99.90;;;;;;5086336;28;20485;-79
2022/06/24 00:32:43;;;;;;;25.25;21.45;;;23.20;99.90;;;;;;5096213;28;20394;-79
2022/06/24 00:35:15;;;;;;;24.35;21.90;;;23.20;99.90;;;;;;5096217;28;20032;-81
2022/06/24 00:37:43;;;;;;;17.05;15.40;;;23.20;99.90;;;;;;5095825;28;20035;-81
2022/06/24 00:40:14;;;;;;;14.35;12.10;;;23.30;99.90;;;;;;5095821;28;20024;-80
2022/06/24 00:42:41;;;;;;;11.00;10.10;;;23.30;99.90;;;;;;5095963;28;20111;-80
2022/06/24 00:45:33;;;;;;;21.33;12.23;;;23.30;99.90;;;;;;5095389;28;20537;-79
2022/06/24 00:48:06;;;;;;;18.23;11.63;;;23.20;99.90;;;;;;5095414;28;20148;-79
2022/06/24 00:50:32;;;;;;;18.92;11.88;;;23.30;99.90;;;;;;5094988;28;20058;-78
2022/06/24 00:53:00;;;;;;;23.45;11.60;;;23.10;99.90;;;;;;5094872;28;20472;-77
2022/06/24 00:55:28;;;;;;;20.52;10.70;;;22.90;99.90;;;;;;5077152;28;20418;-78
2022/06/24 00:57:55;;;;;;;14.93;9.43;;;22.70;99.90;;;;;;5094603;28;20024;-79
2022/06/24 01:00:26;;;;;;;14.25;8.23;;;22.50;99.90;;;;;;5095878;28;20020;-81
2022/06/24 01:03:02;;;;;;;7.40;6.65;;;22.20;99.90;;;;;;5095239;28;20047;-80
2022/06/24 01:05:29;;;;;;;9.82;7.47;;;21.90;99.90;;;;;;5099774;28;20008;-80
2022/06/24 01:07:55;;;;;;;12.70;8.15;;;21.70;99.90;;;;;;5102490;28;20048;-80
2022/06/24 01:10:21;;;;;;;11.00;6.00;;;21.40;99.90;;;;;;5074360;28;20028;-79
2022/06/24 01:12:47;;;;;;;9.40;6.97;;;21.20;99.90;;;;;;5077893;28;20080;-79
2022/06/24 01:15:13;;;;;;;7.93;7.13;;;21.00;99.90;;;;;;5082638;28;20020;-78
2022/06/24 01:17:39;;;;;;;10.10;7.40;;;20.90;99.90;;;;;;5088868;28;20051;-78
2022/06/24 01:20:09;;;;;;;8.73;7.85;;;20.70;99.90;;;;;;5086414;28;20024;-79
2022/06/24 01:22:35;;;;;;;15.20;10.88;;;20.60;99.90;;;;;;5095127;28;20024;-80
2022/06/24 01:25:01;;;;;;;11.48;9.38;;;20.60;99.90;;;;;;5093847;28;20468;-79
2022/06/24 01:27:27;;;;;;;12.52;10.57;;;20.50;99.90;;;;;;5078738;28;20051;-79
2022/06/24 01:29:53;;;;;;;12.77;9.32;;;20.50;99.90;;;;;;5094438;28;20024;-78
2022/06/24 01:32:18;;;;;;;10.48;8.07;;;20.50;99.90;;;;;;5094037;28;20051;-79
2022/06/24 01:34:44;;;;;;;10.13;7.40;;;20.40;99.90;;;;;;5094742;28;20032;-78
2022/06/24 01:37:10;;;;;;;11.38;6.55;;;20.40;99.90;;;;;;5094530;28;20537;-78
2022/06/24 01:39:36;;;;;;;8.23;7.10;;;20.30;99.90;;;;;;5093649;28;20091;-78
2022/06/24 01:42:01;;;;;;;9.15;5.88;;;20.30;99.90;;;;;;5094482;28;20485;-79
2022/06/24 01:44:27;;;;;;;6.22;5.40;;;20.20;99.90;;;;;;5079955;28;20370;-79
2022/06/24 01:46:53;;;;;;;7.65;6.32;;;20.30;99.90;;;;;;5093344;28;20063;-78
2022/06/24 01:49:18;;;;;;;8.45;6.18;;;20.10;99.90;;;;;;5094352;28;20110;-79
2022/06/24 01:51:47;;;;;;;8.00;5.60;;;20.00;99.90;;;;;;5094217;28;20532;-79
2022/06/24 01:54:12;;;;;;;10.63;7.70;;;19.90;99.90;;;;;;5093658;28;20102;-79
2022/06/24 01:56:38;;;;;;;8.02;7.22;;;20.00;99.90;;;;;;5094322;28;20044;-79
2022/06/24 01:59:04;;;;;;;10.88;8.23;;;19.90;99.90;;;;;;5093830;28;20031;-79
2022/06/24 02:01:30;;;;;;;8.90;7.90;;;19.90;99.90;;;;;;5092997;28;20103;-79
2022/06/24 02:03:55;;;;;;;10.68;8.68;;;19.90;99.90;;;;;;5093411;28;20021;-79
2022/06/24 02:06:21;;;;;;;10.18;8.52;;;19.70;99.90;;;;;;5093914;28;20028;-79
2022/06/24 02:08:47;;;;;;;10.70;9.27;;;19.60;99.90;;;;;;5093073;28;20455;-78
2022/06/24 02:13:59;;;;;;;12.43;10.00;;;19.50;99.90;;;;;;5093734;28;20501;-80
2022/06/24 02:16:26;;;;;;;13.43;9.57;;;19.50;99.90;;;;;;5092969;28;20032;-78
2022/06/24 02:18:54;;;;;;;12.70;10.18;;;19.50;99.90;;;;;;5078997;28;20020;-78
2022/06/24 02:21:22;;;;;;;11.35;10.20;;;19.50;99.90;;;;;;5093419;28;20016;-78
2022/06/24 02:23:48;;;;;;;13.00;10.15;;;19.50;99.90;;;;;;5092947;28;20559;-79
2022/06/24 02:26:14;;;;;;;15.10;10.23;;;19.60;99.90;;;;;;5093372;28;20111;-78
2022/06/24 02:28:39;;;;;;;15.63;10.38;;;19.70;99.90;;;;;;5092700;28;20118;-78
2022/06/24 02:31:06;;;;;;;13.80;12.18;;;19.70;99.90;;;;;;5093011;28;20020;-79
2022/06/24 02:33:32;;;;;;;12.40;11.20;;;19.70;99.90;;;;;;5093713;28;20032;-79
2022/06/24 02:35:57;;;;;;;13.30;11.90;;;19.80;99.90;;;;;;5093258;28;20020;-78
2022/06/24 02:38:23;;;;;;;14.38;11.73;;;19.90;99.90;;;;;;5103903;28;20028;-78
2022/06/24 02:40:49;;;;;;;16.73;11.82;;;19.80;99.90;;;;;;5097076;28;20012;-78
2022/06/24 02:43:22;;;;;;;13.10;11.93;;;19.90;99.90;;;;;;5093307;28;20031;-78
2022/06/24 02:45:49;;;;;;;13.07;11.15;;;19.90;99.90;;;;;;5092644;28;20020;-78
2022/06/24 02:48:16;;;;;;;11.85;10.85;;;19.80;99.90;;;;;;5093776;28;20068;-79
2022/06/24 02:50:44;;;;;;;11.52;10.43;;;19.80;99.90;;;;;;5092389;28;20103;-79
2022/06/24 02:53:10;;;;;;;11.43;10.18;;;19.80;99.90;;;;;;5092875;28;20461;-78
2022/06/24 02:55:37;;;;;;;10.98;9.98;;;19.80;99.90;;;;;;5092985;28;20528;-78
2022/06/24 02:58:05;;;;;;;12.85;9.65;;;19.70;99.90;;;;;;5092506;28;20076;-78
2022/06/24 03:00:32;;;;;;;10.63;9.63;;;19.70;99.90;;;;;;5093999;28;20060;-79
2022/06/24 03:02:57;;;;;;;10.63;9.70;;;19.70;99.90;;;;;;5100861;28;20068;-78
2022/06/24 03:05:23;;;;;;;13.82;10.93;;;19.70;99.90;;;;;;5094405;28;20027;-78
2022/06/24 03:07:50;;;;;;;10.02;9.13;;;19.70;99.90;;;;;;5092847;28;20036;-77
2022/06/24 03:10:16;;;;;;;11.90;9.55;;;19.70;99.90;;;;;;5086534;28;20020;-77
2022/06/24 03:12:42;;;;;;;11.02;9.48;;;19.60;99.90;;;;;;5086324;28;20015;-78
2022/06/24 03:15:08;;;;;;;12.65;9.98;;;19.60;99.90;;;;;;5092415;28;20016;-79
2022/06/24 03:17:34;;;;;;;13.90;10.65;;;19.60;99.90;;;;;;5089419;28;20089;-80
2022/06/24 03:20:00;;;;;;;11.88;10.65;;;19.50;99.90;;;;;;5088835;28;20103;-79
2022/06/24 03:22:25;;;;;;;12.23;11.02;;;19.60;99.90;;;;;;5093437;28;20052;-79
2022/06/24 03:24:51;;;;;;;10.70;9.80;;;19.60;99.90;;;;;;5092808;28;20078;-79
2022/06/24 03:27:16;;;;;;;12.07;10.93;;;19.60;99.90;;;;;;5093860;28;20089;-79
2022/06/24 03:29:42;;;;;;;11.55;10.25;;;19.60;99.90;;;;;;5094020;28;20020;-79
2022/06/24 03:32:08;;;;;;;13.40;11.98;;;19.70;99.90;;;;;;5093424;28;20081;-78
2022/06/24 03:34:34;;;;;;;13.52;12.25;;;19.70;99.90;;;;;;5094182;28;20068;-79
2022/06/24 03:37:00;;;;;;;16.92;13.10;;;19.70;99.90;;;;;;5092749;28;20050;-79
2022/06/24 03:39:25;;;;;;;14.00;12.60;;;19.70;99.90;;;;;;5092719;28;20024;-79
2022/06/24 03:41:51;;;;;;;15.63;13.32;;;19.70;99.90;;;;;;5094266;28;20024;-78
2022/06/24 03:44:16;;;;;;;15.52;12.77;;;19.60;99.90;;;;;;5090601;28;20017;-79
2022/06/24 03:46:42;;;;;;;17.92;13.98;;;19.70;99.90;;;;;;5082675;28;20102;-80
2022/06/24 03:49:08;;;;;;;16.10;13.52;;;19.70;99.90;;;;;;5094684;28;20365;-79
2022/06/24 03:51:35;;;;;;;14.98;13.48;;;19.70;99.90;;;;;;5097982;28;20016;-80
2022/06/24 03:54:00;;;;;;;14.02;12.73;;;19.70;99.90;;;;;;5097151;28;20069;-79
2022/06/24 03:56:26;;;;;;;15.23;13.73;;;19.70;99.90;;;;;;5098361;28;20137;-79
2022/06/24 03:58:52;;;;;;;13.43;12.23;;;19.70;99.90;;;;;;5097805;28;20028;-79
2022/06/24 04:01:17;;;;;;;13.90;12.52;;;19.70;99.90;;;;;;5096663;28;20047;-79
2022/06/24 04:03:43;;;;;;;16.13;11.23;;;19.70;99.90;;;;;;5097291;28;20073;-78
2022/06/24 04:06:08;;;;;;;13.02;11.73;;;20.00;99.90;;;;;;5098045;28;20020;-79
2022/06/24 04:08:34;;;;;;;16.05;12.70;;;19.70;99.90;;;;;;5097024;28;20115;-79
2022/06/24 04:11:11;;;;;;;13.40;11.63;;;19.70;99.90;;;;;;5104162;28;20388;-79
2022/06/24 04:13:37;;;;;;;14.20;12.85;;;19.50;99.90;;;;;;5097382;28;20105;-79
2022/06/24 04:16:02;;;;;;;14.15;12.57;;;19.60;99.90;;;;;;5097298;28;20032;-79
2022/06/24 04:18:28;;;;;;;16.75;13.90;;;19.50;99.90;;;;;;5082871;28;20452;-79
2022/06/24 04:20:53;;;;;;;15.68;13.18;;;19.50;99.90;;;;;;5096779;28;20016;-79
2022/06/24 04:23:19;;;;;;;18.33;13.65;;;19.50;99.90;;;;;;5096429;28;20047;-79
2022/06/24 04:25:48;;;;;;;14.68;12.82;;;19.50;99.90;;;;;;5096800;28;20016;-79
2022/06/24 04:28:14;;;;;;;14.40;12.90;;;19.50;99.90;;;;;;5096169;28;20101;-79
2022/06/24 04:30:39;;;;;;;15.18;12.35;;;19.50;99.90;;;;;;5096220;28;20472;-79
2022/06/24 04:33:05;;;;;;;17.70;13.88;;;19.50;99.90;;;;;;5096307;28;20036;-78
2022/06/24 04:35:31;;;;;;;16.30;12.75;;;19.50;99.90;;;;;;5095690;28;20475;-78
2022/06/24 04:37:56;;;;;;;16.38;14.68;;;19.50;99.90;;;;;;5096666;28;20380;-78
2022/06/24 04:40:22;;;;;;;15.00;13.43;;;19.50;99.90;;;;;;5097096;28;20035;-79
2022/06/24 04:42:48;;;;;;;15.05;12.50;;;19.50;99.90;;;;;;5096405;28;20455;-78
2022/06/24 04:45:14;;;;;;;13.30;12.00;;;19.50;99.90;;;;;;5097981;28;20041;-78
2022/06/24 04:47:39;;;;;;;14.43;12.85;;;19.60;99.90;;;;;;5096206;28;20039;-77
2022/06/24 04:50:06;;;;;;;14.52;13.02;;;19.60;99.90;;;;;;5095911;28;20016;-78
2022/06/24 04:52:32;;;;;;;12.73;11.40;;;19.70;99.90;;;;;;5097579;28;20024;-79
2022/06/24 04:54:58;;;;;;;15.55;12.77;;;19.80;99.90;;;;;;5096409;28;20024;-79
2022/06/24 04:57:23;;;;;;;18.30;13.43;;;19.80;99.90;;;;;;5096213;28;20032;-78
2022/06/24 04:59:49;;;;;;;14.38;12.98;;;19.90;99.90;;;;;;5090471;28;20380;-78
2022/06/24 05:02:14;;;;;;;14.00;12.68;;;19.90;99.90;;;;;;5087651;28;20476;-78
2022/06/24 05:04:40;;;;;;;14.60;13.23;;;19.90;99.90;;;;;;5095466;28;20020;-78
2022/06/24 05:07:06;;;;;;;15.52;13.80;;;19.90;99.90;;;;;;5096819;28;20118;-79
2022/06/24 05:09:32;;;;;;;13.27;12.07;;;19.90;99.90;;;;;;5096452;28;20028;-79
2022/06/24 05:11:58;;;;;;;12.77;11.48;;;19.90;99.90;;;;;;5095872;28;20035;-79
2022/06/24 05:14:24;;;;;;;14.43;12.18;;;19.90;99.90;;;;;;5096704;28;20028;-79
2022/06/24 05:16:50;;;;;;;13.18;11.82;;;19.90;99.90;;;;;;5093956;28;20073;-79
2022/06/24 05:19:16;;;;;;;13.73;10.85;;;19.50;99.90;;;;;;5082821;28;20032;-78
2022/06/24 05:21:41;;;;;;;12.82;11.65;;;20.00;99.90;;;;;;5095387;28;20103;-79
2022/06/24 05:24:08;;;;;;;11.23;10.20;;;20.10;99.90;;;;;;5095448;28;20196;-79
2022/06/24 05:26:33;;;;;;;12.07;10.85;;;20.10;99.90;;;;;;5095917;28;20024;-79
2022/06/24 05:28:59;;;;;;;11.65;10.60;;;20.10;99.90;;;;;;5095443;28;20484;-80
2022/06/24 05:31:24;;;;;;;16.90;11.90;;;20.10;99.90;;;;;;5095918;28;20028;-79
2022/06/24 05:33:50;;;;;;;11.65;10.55;;;20.10;99.90;;;;;;5094866;28;20036;-79
2022/06/24 05:36:16;;;;;;;12.27;10.85;;;20.20;99.90;;;;;;5095740;28;20084;-78
2022/06/24 05:38:42;;;;;;;11.52;10.52;;;20.20;99.90;;;;;;5094544;28;20485;-80
2022/06/24 05:41:08;;;;;;;14.23;10.32;;;20.20;99.90;;;;;;5095607;28;20028;-81
2022/06/24 05:43:34;;;;;;;10.80;9.93;;;20.20;99.90;;;;;;5096908;28;20027;-79
2022/06/24 05:46:00;;;;;;;11.20;10.02;;;20.30;99.90;;;;;;5098365;28;20350;-79
2022/06/24 05:48:25;;;;;;;10.73;9.63;;;20.30;99.90;;;;;;5095386;28;20130;-79
2022/06/24 05:50:51;;;;;;;11.20;10.23;;;20.40;99.90;;;;;;5096245;28;20032;-79
2022/06/24 05:56:01;;;;;;;15.13;11.82;;;20.40;99.90;;;;;;5096176;28;20124;-78
2022/06/24 05:58:28;;;;;;;12.07;10.88;;;20.40;99.90;;;;;;5104267;28;20028;-80
2022/06/24 06:00:57;;;;;;;14.23;10.77;;;20.40;99.90;;;;;;5097128;28;20043;-79
2022/06/24 06:03:24;;;;;;;11.40;10.32;;;20.50;99.90;;;;;;5095360;28;20523;-80
2022/06/24 06:05:50;;;;;;;12.07;10.88;;;20.40;99.90;;;;;;5094963;28;20055;-78
2022/06/24 06:08:16;;;;;;;12.93;11.73;;;20.40;99.90;;;;;;5094775;28;20475;-79
2022/06/24 06:10:43;;;;;;;14.43;13.10;;;20.30;99.90;;;;;;5095355;28;20032;-79
2022/06/24 06:13:13;;;;;;;13.25;11.35;;;20.30;99.90;;;;;;5093658;28;20032;-79
2022/06/24 06:15:42;;;;;;;12.90;11.60;;;20.30;99.90;;;;;;5092675;28;20024;-78
2022/06/24 06:18:07;;;;;;;12.73;10.27;;;20.30;99.90;;;;;;5072774;28;20029;-79
2022/06/24 06:20:33;;;;;;;11.27;10.23;;;20.30;99.90;;;;;;5072959;28;20055;-77
2022/06/24 06:22:58;;;;;;;10.80;9.90;;;20.20;99.90;;;;;;5074785;28;20423;-77
2022/06/24 06:25:24;;;;;;;11.50;9.90;;;20.20;99.90;;;;;;5072584;28;20037;-79
2022/06/24 06:27:50;;;;;;;10.50;9.35;;;20.20;99.90;;;;;;5072794;28;20365;-78
2022/06/24 06:30:16;;;;;;;8.73;7.78;;;20.30;99.90;;;;;;5072722;28;20487;-78
2022/06/24 06:32:42;;;;;;;9.90;8.52;;;20.20;99.90;;;;;;5072791;28;20127;-77
2022/06/24 06:35:08;;;;;;;9.27;8.07;;;20.20;99.90;;;;;;5071654;28;20552;-77
2022/06/24 06:37:33;;;;;;;8.98;7.60;;;20.20;99.90;;;;;;5072235;28;20056;-78
2022/06/24 06:39:59;;;;;;;9.43;8.15;;;20.20;99.90;;;;;;5072163;28;20063;-78
2022/06/24 06:42:25;;;;;;;9.65;8.75;;;20.20;99.90;;;;;;5071741;28;20031;-77
2022/06/24 06:44:51;;;;;;;8.63;7.80;;;20.20;99.90;;;;;;5077764;28;20154;-78
2022/06/24 06:47:16;;;;;;;8.20;7.55;;;20.30;99.90;;;;;;5074977;28;20120;-81
2022/06/24 06:49:42;;;;;;;9.82;8.30;;;20.30;99.90;;;;;;5079061;28;20380;-78
2022/06/24 06:52:08;;;;;;;7.78;7.18;;;20.30;99.90;;;;;;5083305;28;20063;-78
2022/06/24 06:54:34;;;;;;;9.73;8.75;;;20.30;99.90;;;;;;5085379;28;20024;-77
2022/06/24 06:56:59;;;;;;;10.60;8.40;;;20.30;99.90;;;;;;5087179;28;20040;-78
2022/06/24 06:59:25;;;;;;;9.55;8.73;;;20.30;99.90;;;;;;5091525;28;20111;-79
2022/06/24 07:01:51;;;;;;;8.95;8.15;;;20.30;99.90;;;;;;5091623;28;20085;-77
2022/06/24 07:04:17;;;;;;;9.10;8.38;;;20.30;99.90;;;;;;5088127;28;20031;-80
2022/06/24 07:06:42;;;;;;;8.85;7.95;;;20.30;99.90;;;;;;5091925;28;20024;-79
2022/06/24 07:09:08;;;;;;;8.82;7.93;;;20.40;99.90;;;;;;5092278;28;20063;-78
2022/06/24 07:11:34;;;;;;;9.32;8.52;;;20.40;99.90;;;;;;5091635;28;20034;-79
2022/06/24 07:14:00;;;;;;;8.25;7.55;;;20.40;99.90;;;;;;5092228;28;20111;-80
2022/06/24 07:16:26;;;;;;;12.85;8.55;;;20.40;99.90;;;;;;5090615;28;20495;-79
2022/06/24 07:18:52;;;;;;;8.60;7.90;;;20.50;99.90;;;;;;5090545;28;20059;-80
2022/06/24 07:21:17;;;;;;;11.23;10.15;;;20.50;99.90;;;;;;5092762;28;20066;-80
2022/06/24 07:23:46;;;;;;;14.55;12.00;;;20.50;99.90;;;;;;5093859;28;20041;-78
2022/06/24 07:26:11;;;;;;;14.20;12.90;;;20.60;99.90;;;;;;5084142;28;20108;-81
2022/06/24 07:28:38;;;;;;;15.45;13.63;;;20.60;99.90;;;;;;5073908;28;20134;-78
2022/06/24 07:31:19;;;;;;;15.05;13.73;;;20.70;99.90;;;;;;5083253;28;20020;-78
2022/06/24 07:33:45;;;;;;;13.18;11.95;;;20.70;99.90;;;;;;5073955;28;20025;-78
2022/06/24 07:36:11;;;;;;;13.82;12.43;;;20.70;99.90;;;;;;5087055;28;20477;-79
2022/06/24 07:38:38;;;;;;;12.60;11.32;;;20.80;99.90;;;;;;5073291;28;20104;-79
2022/06/24 07:41:04;;;;;;;10.40;9.15;;;20.70;99.90;;;;;;5074004;28;20027;-76
2022/06/24 07:43:30;;;;;;;8.15;7.55;;;20.70;99.90;;;;;;5074516;28;20029;-78
2022/06/24 07:45:56;;;;;;;6.68;6.18;;;20.70;99.90;;;;;;5073742;28;20035;-77
2022/06/24 07:48:22;;;;;;;8.68;6.93;;;20.70;99.90;;;;;;5075243;28;20060;-79
2022/06/24 07:50:48;;;;;;;7.05;6.35;;;20.70;99.90;;;;;;5091657;28;20032;-82
2022/06/24 07:53:14;;;;;;;6.75;6.25;;;20.70;99.90;;;;;;5086377;28;20529;-80
2022/06/24 07:58:25;;;;;;;6.15;5.55;;;20.80;99.90;;;;;;5096834;28;20046;-79
2022/06/24 08:00:51;;;;;;;6.10;5.53;;;20.90;99.90;;;;;;5092580;28;20463;-83
2022/06/24 08:03:17;;;;;;;5.18;4.68;;;21.00;99.90;;;;;;5096044;28;20097;-83
2022/06/24 08:05:43;;;;;;;5.35;4.50;;;21.10;99.90;;;;;;5082298;28;20028;-83
2022/06/24 08:08:09;;;;;;;4.82;4.30;;;21.10;99.90;;;;;;5095063;28;20039;-81
2022/06/24 08:10:35;;;;;;;4.82;4.10;;;21.10;99.90;;;;;;5093663;28;20035;-79
2022/06/24 08:13:01;;;;;;;4.32;3.90;;;21.20;99.90;;;;;;5079988;28;20414;-79
2022/06/24 08:15:27;;;;;;;6.97;5.50;;;21.30;99.90;;;;;;5094487;28;20372;-80
2022/06/24 08:17:52;;;;;;;4.82;4.40;;;21.50;99.90;;;;;;5083130;28;20035;-78
2022/06/24 08:20:18;;;;;;;4.38;4.07;;;21.60;99.90;;;;;;5088809;28;20024;-75
2022/06/24 08:22:44;;;;;;;4.25;3.85;;;21.60;99.90;;;;;;5094595;28;20034;-79
2022/06/24 08:25:11;;;;;;;5.70;4.55;;;21.80;99.90;;;;;;5099913;28;20379;-77
2022/06/24 08:27:37;;;;;;;7.05;5.40;;;21.90;99.90;;;;;;5096877;28;20028;-80
2022/06/24 08:30:03;;;;;;;5.28;4.78;;;22.10;99.90;;;;;;5092570;28;20089;-76
2022/06/24 08:32:29;;;;;;;6.45;5.95;;;22.10;99.90;;;;;;5093463;28;20024;-77
2022/06/24 08:34:55;;;;;;;7.97;6.80;;;22.20;99.90;;;;;;5093340;28;20017;-75
2022/06/24 08:37:21;;;;;;;7.28;6.50;;;22.30;99.90;;;;;;5100768;28;20043;-80
2022/06/24 08:39:53;;;;;;;8.98;8.18;;;22.40;99.90;;;;;;5091318;28;20083;-80
2022/06/24 08:42:19;;;;;;;10.48;7.82;;;22.50;99.90;;;;;;5096836;28;20024;-81
2022/06/24 08:44:45;;;;;;;10.07;7.10;;;22.60;99.90;;;;;;5096219;28;20026;-80
2022/06/24 08:47:14;;;;;;;9.45;8.65;;;22.50;99.90;;;;;;5093588;28;20020;-78
2022/06/24 08:49:40;;;;;;;12.20;10.65;;;22.70;99.90;;;;;;5085891;28;20025;-80
2022/06/24 08:52:10;;;;;;;10.30;9.38;;;22.70;99.90;;;;;;5074712;28;20020;-80
2022/06/24 08:54:39;;;;;;;12.52;11.27;;;22.80;99.90;;;;;;5078434;28;20024;-79
2022/06/24 08:57:04;;;;;;;10.65;9.52;;;22.80;99.90;;;;;;5088456;28;20360;-79
2022/06/24 08:59:30;;;;;;;11.27;10.10;;;22.80;99.90;;;;;;5091308;28;20078;-77
2022/06/24 09:01:56;;;;;;;14.57;11.70;;;22.80;99.90;;;;;;5086788;28;20047;-80
2022/06/24 09:04:23;;;;;;;14.50;13.20;;;22.80;99.90;;;;;;5075207;28;20488;-77
2022/06/24 09:06:48;;;;;;;15.00;13.50;;;22.80;99.90;;;;;;5081181;28;20020;-78
2022/06/24 09:09:23;;;;;;;16.40;14.68;;;22.80;99.90;;;;;;5082327;28;20032;-76
2022/06/24 09:11:53;;;;;;;15.85;14.32;;;22.80;99.90;;;;;;5079715;28;20026;-75
2022/06/24 09:14:19;;;;;;;15.23;13.73;;;22.80;99.90;;;;;;5083336;28;20040;-77
2022/06/24 09:16:45;;;;;;;14.65;13.10;;;22.80;99.90;;;;;;5085619;28;20028;-78
2022/06/24 09:19:14;;;;;;;17.38;15.57;;;22.90;99.90;;;;;;5081848;28;20024;-78
2022/06/24 09:21:41;;;;;;;19.90;15.77;;;23.10;99.90;;;;;;5094824;28;20020;-78
2022/06/24 09:24:08;;;;;;;21.55;18.83;;;23.30;99.90;;;;;;5074353;28;20050;-79
2022/06/24 09:26:37;;;;;;;21.60;14.85;;;23.40;99.90;;;;;;5074245;28;20442;-79
2022/06/24 09:29:25;;;;;;;16.98;15.20;;;23.60;99.90;;;;;;5073793;28;20036;-78
2022/06/24 09:31:50;;;;;;;18.33;14.90;;;23.80;99.90;;;;;;5074340;28;20112;-78
2022/06/24 09:34:17;;;;;;;19.70;17.58;;;23.90;99.90;;;;;;5088938;28;20104;-77
2022/06/24 09:36:45;;;;;;;18.30;15.00;;;24.00;99.90;;;;;;5074601;28;20085;-79
2022/06/24 09:39:13;;;;;;;21.00;16.92;;;24.00;99.90;;;;;;5087861;28;20043;-80
2022/06/24 09:41:42;;;;;;;19.85;17.80;;;24.00;99.90;;;;;;5091018;28;20024;-81
2022/06/24 09:44:09;;;;;;;22.63;16.50;;;24.10;99.90;;;;;;5074703;28;20033;-75
2022/06/24 09:46:35;;;;;;;17.73;15.02;;;24.10;99.90;;;;;;5072064;28;20130;-72
2022/06/24 09:49:05;;;;;;;16.33;14.60;;;24.10;99.90;;;;;;5094024;28;20039;-83
2022/06/24 09:51:31;;;;;;;17.48;15.50;;;24.30;99.90;;;;;;5092527;28;20024;-83
2022/06/24 09:53:58;;;;;;;17.02;15.32;;;24.50;99.90;;;;;;5096922;28;20016;-84
2022/06/24 09:56:24;;;;;;;21.60;12.27;;;24.50;99.90;;;;;;5097795;28;20031;-85
2022/06/24 10:01:37;;;;;;;14.95;12.38;;;24.60;99.90;;;;;;5092279;28;20115;-84
2022/06/24 10:04:05;;;;;;;12.73;11.48;;;24.60;99.90;;;;;;5090540;28;20048;-84
2022/06/24 10:06:36;;;;;;;13.60;12.32;;;24.70;99.90;;;;;;5084458;28;20032;-84
2022/06/24 10:09:08;;;;;;;11.88;10.65;;;24.70;99.90;;;;;;5091799;28;20036;-85
2022/06/24 10:11:37;;;;;;;12.73;10.65;;;24.60;99.90;;;;;;5087993;28;20149;-84
2022/06/24 10:14:02;;;;;;;12.30;11.13;;;24.70;99.90;;;;;;5089805;28;20430;-85
2022/06/24 10:16:29;;;;;;;13.60;12.32;;;24.90;99.90;;;;;;5084218;28;20068;-85
2022/06/24 10:18:56;;;;;;;16.23;13.70;;;25.00;99.90;;;;;;5098478;28;20024;-84
2022/06/24 10:21:22;;;;;;;19.20;14.20;;;25.20;99.90;;;;;;5107302;28;20415;-85
2022/06/24 10:23:48;;;;;;;17.25;15.55;;;25.20;99.90;;;;;;5093978;28;20460;-85
2022/06/24 10:26:17;;;;;;;21.73;16.52;;;25.20;99.90;;;;;;5093309;28;20066;-85
2022/06/24 10:29:04;;;;;;;13.60;11.10;;;25.10;99.90;;;;;;5093248;28;20028;-83
2022/06/24 10:31:56;;;;;;;9.73;8.77;;;25.20;99.90;;;;;;5089532;28;20035;-85
2022/06/24 10:34:22;;;;;;;9.43;8.55;;;25.40;99.90;;;;;;5089246;28;20349;-85
2022/06/24 10:36:53;;;;;;;7.50;6.80;;;25.60;99.90;;;;;;5081846;28;20108;-84
2022/06/24 10:39:24;;;;;;;6.97;5.95;;;25.90;99.90;;;;;;5082861;28;20024;-83
2022/06/24 10:41:59;;;;;;;;;;;26.10;99.90;;;;;;5082235;28;20033;-82
2022/06/24 10:44:31;;;;;;;11.43;10.23;;;26.20;99.90;;;;;;5079580;28;19991;-84
2022/06/24 10:47:18;;;;;;;16.33;14.40;;;26.10;99.90;;;;;;5079219;28;20059;-84
2022/06/24 10:50:12;;;;;;;14.13;12.80;;;25.80;99.90;;;;;;5065239;28;20063;-85
2022/06/24 10:52:45;;;;;;;16.55;11.00;;;25.40;99.90;;;;;;5051207;28;20036;-86
2022/06/24 10:55:29;;;;;;;10.38;8.38;;;25.10;99.90;;;;;;5080726;28;20107;-86
2022/06/24 10:58:06;;;;;;;12.85;9.63;;;24.70;99.90;;;;;;5089226;28;20024;-84
2022/06/24 11:00:37;;;;;;;9.90;8.90;;;24.30;99.90;;;;;;5094727;28;20048;-83
2022/06/24 11:03:02;;;;;;;10.98;9.88;;;24.00;99.90;;;;;;5099721;28;20134;-83
2022/06/24 11:05:36;;;;;;;15.07;10.20;;;23.70;99.90;;;;;;5094054;28;20128;-84
2022/06/24 11:08:08;;;;;;;10.70;9.40;;;23.40;99.90;;;;;;5099766;28;20100;-83
2022/06/24 11:10:34;;;;;;;11.40;10.07;;;23.20;99.90;;;;;;5092619;28;20087;-83
2022/06/24 11:13:00;;;;;;;10.00;8.20;;;23.00;99.90;;;;;;5096839;28;20057;-84
2022/06/24 11:15:45;;;;;;;12.85;10.20;;;22.80;99.90;;;;;;5104161;28;20020;-86
2022/06/24 11:18:14;;;;;;;21.67;13.73;;;22.70;99.90;;;;;;5104954;28;20009;-84
2022/06/24 11:20:42;;;;;;;22.70;13.60;;;22.60;99.90;;;;;;5097167;28;20033;-84
2022/06/24 11:23:12;;;;;;;17.02;13.88;;;22.60;99.90;;;;;;5092380;28;20039;-82
2022/06/24 11:25:42;;;;;;;24.98;16.45;;;22.70;99.90;;;;;;5090036;28;20099;-84
2022/06/24 11:28:21;;;;;;;;;;;22.80;99.90;;;;;;5078389;28;20043;-84
2022/06/24 11:30:48;;;;;;;27.25;17.17;;;22.90;99.90;;;;;;5084078;28;19912;-83
2022/06/24 11:33:13;;;;;;;34.15;20.02;;;23.00;99.90;;;;;;5095306;28;20016;-83
2022/06/24 11:35:39;;;;;;;35.63;19.98;;;23.20;99.90;;;;;;5088446;28;20506;-83
2022/06/24 11:38:07;;;;;;;30.77;17.92;;;23.20;99.90;;;;;;5087033;28;20024;-84
2022/06/24 11:40:33;;;;;;;25.15;16.30;;;23.40;99.90;;;;;;5089691;28;20028;-83
2022/06/24 11:43:04;;;;;;;32.95;16.58;;;23.40;99.90;;;;;;5091423;28;20071;-82
2022/06/24 11:45:43;;;;;;;32.97;20.95;;;23.60;99.90;;;;;;5083773;28;20110;-83
2022/06/24 11:48:11;;;;;;;34.63;19.88;;;23.70;99.90;;;;;;5085733;28;20052;-84
2022/06/24 11:50:38;;;;;;;30.55;17.38;;;23.90;99.90;;;;;;5088431;28;20090;-83
2022/06/24 11:53:05;;;;;;;26.10;15.93;;;24.10;99.90;;;;;;5083514;28;20029;-84
2022/06/24 11:55:38;;;;;;;25.98;16.98;;;24.30;99.90;;;;;;5079487;28;20021;-84
2022/06/24 11:58:05;;;;;;;27.67;16.98;;;24.50;99.90;;;;;;5082729;28;20028;-81
2022/06/24 12:00:35;;;;;;;27.55;18.48;;;24.60;99.90;;;;;;5091157;28;20077;-80
2022/06/24 12:03:03;;;;;;;24.48;17.63;;;24.80;99.90;;;;;;5091306;28;20446;-80
2022/06/24 12:05:30;;;;;;;29.00;20.23;;;24.80;99.90;;;;;;5089972;28;20055;-81
2022/06/24 12:07:58;;;;;;;25.63;17.98;;;24.80;99.90;;;;;;5084886;28;20043;-80
2022/06/24 12:10:24;;;;;;;29.40;18.13;;;24.70;99.90;;;;;;5088408;28;20020;-81
2022/06/24 12:13:01;;;;;;;25.70;16.50;;;24.80;99.90;;;;;;5085398;28;20081;-82
2022/06/24 12:15:51;;;;;;;31.58;17.73;;;24.80;99.90;;;;;;5090883;28;20438;-81
2022/06/24 12:18:18;;;;;;;;;;;25.10;99.90;;;;;;5092189;28;20164;-80
2022/06/24 12:20:56;;;;;;;35.90;20.92;;;25.40;99.90;;;;;;5094443;28;19916;-80
2022/06/24 12:23:23;;;;;;;36.83;18.88;;;25.60;99.90;;;;;;5092233;28;20032;-82
2022/06/24 12:25:50;;;;;;;34.53;16.70;;;25.60;99.90;;;;;;5094618;28;20020;-82
2022/06/24 12:28:24;;;;;;;35.35;18.10;;;25.70;99.90;;;;;;5094429;28;20555;-82
2022/06/24 12:31:06;;;;;;;36.72;18.08;;;25.60;99.90;;;;;;5091103;28;20518;-81
2022/06/24 12:33:34;;;;;;;32.92;18.52;;;25.60;99.90;;;;;;5081095;28;20496;-81
2022/06/24 12:36:04;;;;;;;28.92;18.25;;;25.70;99.90;;;;;;5076928;28;20052;-82
2022/06/24 12:38:30;;;;;;;21.27;15.88;;;25.80;99.90;;;;;;5082763;28;20022;-82
2022/06/24 12:41:23;;;;;;;16.50;13.57;;;25.90;99.90;;;;;;5078219;28;20025;-82
2022/06/24 12:43:51;;;;;;;21.65;14.95;;;26.10;99.90;;;;;;5077560;28;20104;-82
2022/06/24 12:46:17;;;;;;;27.48;18.73;;;26.20;99.90;;;;;;5079981;28;20024;-82